Throop, Pennsylvania
Current Conditions -  °F | °C
As of 10:54 AM on Thursday 23 Oct 2014 (Local Time) from KAVP Reporting Station
Light Rain Light Rain  
Wind Chill: 41°   Ceiling: 1200
Heat Index: 46°   Visibility: 6mi
Dew Point: 42°   Wind: 9mph
Humidity: 86%   Direction: 360°N
Pressure: 29.86"   Gusts: 22mph
Location:  41.4243°N, 75.5976°W
Report Text: KAVP 231454Z AUTO 36008G19KT 6SM -RA BR OVC012 08/06 A2986 RMK AO2 SLP112 P0005 60011 T00780056 58004
Loading
Personal Weather Stations






























Interactive Weather Map
Tropical Storm Tracking
New forecast layout! Learn more

10-Day Weather Forecast

Advertisements
Track Severe Weather on mobile